Terminal Aerodrome Forecast
Issued by NWS Tuscon, AZ

Home | Current Version | Previous Version | Text Only | Print | Product List | Glossary On
Versions: 1 2 3 4 5 6 7 8 9 10 11 12 13
988
FTUS45 KTWC 250520
TAFDUG
TAF
KDUG 250520Z 2506/2606 33006KT P6SM BKN080
     FM250900 06005KT P6SM FEW080
     FM251700 10008KT P6SM SCT080 SCT250
     FM252200 08012KT P6SM BKN080 BKN150
     FM260300 09015KT P6SM BKN070 BKN120=

USA.gov is the U.S. government's official web portal to all federal, state and local government web resources and services.